Time;durP1;ratioP1;P1;durP2;ratioP2;P2;SDS_P1;SDS_P2;PMS_P1;PMS_P2;Temp;Humidity;BMP_temperature;BMP_pressure;BME280_temperature;BME280_humidity;BME280_pressure;Samples;Min_cycle;Max_cycle;Signal;HPM_P1;HPM_P2
2023/11/02 00:02:26;;;;;;;2.42;1.60;;;;;;;9.50;65.16;97005.31;4969601;28;102794;-64
2023/11/02 00:04:56;;;;;;;1.88;1.27;;;;;;;9.49;65.19;96999.22;4975652;28;103884;-65
2023/11/02 00:07:29;;;;;;;3.78;1.75;;;;;;;9.44;65.10;96983.97;4957419;28;103049;-65
2023/11/02 00:09:59;;;;;;;5.03;2.10;;;;;;;9.41;65.47;96989.66;4958981;28;102779;-65
2023/11/02 00:12:28;;;;;;;3.45;1.85;;;;;;;9.40;65.82;96974.81;4977222;28;104062;-65
2023/11/02 00:14:57;;;;;;;4.82;1.90;;;;;;;9.47;65.28;96964.25;4959957;28;104391;-65
2023/11/02 00:17:59;;;;;;;4.13;1.92;;;;;;;9.43;65.33;96960.41;4965571;28;103298;-65
2023/11/02 00:20:33;;;;;;;3.92;2.13;;;;;;;9.36;65.37;96944.53;4965415;28;102779;-65
2023/11/02 00:23:03;;;;;;;2.05;1.52;;;;;;;9.37;65.65;96940.91;4977460;28;103572;-64
2023/11/02 00:25:50;;;;;;;3.75;2.20;;;;;;;9.33;65.80;96937.03;4978802;28;104039;-65
2023/11/02 00:28:19;;;;;;;4.85;1.90;;;;;;;9.28;65.80;96932.34;4985568;28;103229;-65
2023/11/02 00:30:50;;;;;;;2.67;1.55;;;;;;;9.30;65.74;96932.13;4980422;28;102961;-64
2023/11/02 00:33:19;;;;;;;4.97;2.08;;;;;;;9.29;65.56;96923.41;4955828;28;103811;-64
2023/11/02 00:35:49;;;;;;;3.60;1.92;;;;;;;9.26;65.69;96923.84;4962353;28;103818;-65
2023/11/02 00:38:23;;;;;;;3.88;1.90;;;;;;;9.23;66.05;96913.66;4958522;28;103262;-65
2023/11/02 00:40:51;;;;;;;2.50;1.63;;;;;;;9.25;65.49;96894.97;4965642;28;102658;-65
2023/11/02 00:43:22;;;;;;;2.75;1.90;;;;;;;9.23;66.12;96886.44;4959126;28;102802;-65
2023/11/02 00:45:51;;;;;;;3.58;1.77;;;;;;;9.23;65.94;96886.44;4949700;28;103281;-65
2023/11/02 00:48:22;;;;;;;2.17;1.55;;;;;;;9.18;66.14;96878.31;4970549;28;103016;-65
2023/11/02 00:51:19;;;;;;;2.28;1.50;;;;;;;9.20;65.88;96878.94;4978196;28;102847;-65
2023/11/02 00:53:57;;;;;;;2.58;1.38;;;;;;;9.16;66.98;96870.59;4977373;28;104009;-65
2023/11/02 00:56:29;;;;;;;3.42;1.80;;;;;;;9.10;66.83;96864.31;4960717;28;103309;-65
2023/11/02 00:58:57;;;;;;;3.90;2.33;;;;;;;9.08;67.10;96870.81;4965773;28;103210;-65
2023/11/02 01:01:27;;;;;;;3.20;1.90;;;;;;;9.11;66.72;96871.19;4952185;28;102777;-65
2023/11/02 01:03:57;;;;;;;2.22;1.67;;;;;;;9.10;66.60;96872.22;4954891;28;102649;-65
2023/11/02 01:06:28;;;;;;;3.15;2.00;;;;;;;9.15;66.43;96873.44;4955304;28;103187;-65
2023/11/02 01:09:03;;;;;;;2.92;1.90;;;;;;;9.13;66.62;96868.34;4974930;28;103415;-65
2023/11/02 01:11:35;;;;;;;5.00;1.90;;;;;;;9.11;67.04;96863.25;4967087;28;102560;-64
2023/11/02 01:14:26;;;;;;;5.30;1.70;;;;;;;8.96;67.31;96862.66;4966656;28;102758;-65
2023/11/02 01:16:56;;;;;;;2.73;1.70;;;;;;;8.87;66.53;96845.38;4957188;28;103898;-64
2023/11/02 01:19:51;;;;;;;3.10;1.58;;;;;;;8.93;66.35;96826.09;4952694;28;103216;-64
2023/11/02 01:22:48;;;;;;;2.15;1.70;;;;;;;8.95;65.81;96821.44;4961598;28;102677;-65
2023/11/02 01:25:18;;;;;;;3.60;1.70;;;;;;;8.87;65.91;96808.44;4962333;28;102726;-65
2023/11/02 01:27:47;;;;;;;2.90;1.70;;;;;;;8.93;66.16;96802.34;4976531;28;104275;-64
2023/11/02 01:31:17;;;;;;;3.08;1.60;;;;;;;8.88;65.82;96783.66;4947038;28;103384;-64
2023/11/02 01:34:14;;;;;;;2.75;1.75;;;;;;;8.87;66.32;96772.31;4958212;28;102622;-64
2023/11/02 01:36:44;;;;;;;3.00;1.80;;;;;;;8.83;65.94;96760.53;4976945;28;103632;-64
2023/11/02 01:39:52;;;;;;;2.65;1.60;;;;;;;8.91;65.34;96756.88;4965850;28;103936;-64
2023/11/02 01:42:27;;;;;;;3.40;2.05;;;;;;;8.86;65.72;96754.03;4956770;28;103286;-64
2023/11/02 01:45:03;;;;;;;2.33;1.60;;;;;;;8.93;65.47;96744.25;4960644;28;102667;-66
2023/11/02 01:47:39;;;;;;;2.85;1.58;;;;;;;8.96;65.63;96743.84;4964300;28;104079;-64
2023/11/02 01:50:15;;;;;;;3.08;1.95;;;;;;;8.88;66.12;96736.16;4958608;28;104143;-64
2023/11/02 01:53:09;;;;;;;2.80;1.88;;;;;;;8.95;65.42;96726.41;4962952;28;103167;-64
2023/11/02 01:55:50;;;;;;;4.93;1.98;;;;;;;8.92;65.57;96722.34;4947711;28;102845;-64
2023/11/02 01:58:31;;;;;;;4.57;3.03;;;;;;;8.90;65.73;96713.81;4979368;28;102815;-64
2023/11/02 02:01:08;;;;;;;5.15;3.45;;;;;;;8.93;65.62;96708.13;4960038;28;104144;-64
2023/11/02 02:03:45;;;;;;;5.47;2.60;;;;;;;8.97;65.49;96705.88;4954721;28;104183;-64
2023/11/02 02:06:20;;;;;;;4.72;2.80;;;;;;;9.03;65.00;96699.75;4960394;28;102936;-64
2023/11/02 02:09:02;;;;;;;6.95;2.70;;;;;;;8.97;65.79;96713.78;4955871;28;103626;-64
2023/11/02 02:11:43;;;;;;;4.38;2.78;;;;;;;8.97;65.40;96708.50;4960201;28;105753;-65
2023/11/02 02:14:25;;;;;;;4.28;3.30;;;;;;;9.02;65.48;96705.25;4971088;28;103372;-64
2023/11/02 02:17:00;;;;;;;3.40;2.40;;;;;;;9.00;65.48;96702.00;4955450;28;103611;-64
2023/11/02 02:19:49;;;;;;;3.60;2.20;;;;;;;9.00;65.37;96687.00;4967739;28;103898;-64
2023/11/02 02:22:25;;;;;;;4.03;2.20;;;;;;;8.98;65.32;96678.44;4951571;28;104308;-64
2023/11/02 02:24:59;;;;;;;3.53;1.80;;;;;;;9.02;65.21;96682.28;4979031;28;103211;-63
2023/11/02 02:27:59;;;;;;;5.13;2.20;;;;;;;9.04;65.65;96674.16;4953280;28;102804;-64
2023/11/02 02:30:54;;;;;;;10.85;2.10;;;;;;;9.05;65.31;96666.06;4957056;28;104146;-64
2023/11/02 02:34:19;;;;;;;4.32;1.80;;;;;;;9.07;65.56;96661.34;4952389;28;104020;-64
2023/11/02 02:37:04;;;;;;;3.35;1.90;;;;;;;9.02;65.64;96647.97;4873652;28;103026;-64
2023/11/02 02:39:38;;;;;;;5.00;2.25;;;;;;;9.07;65.36;96642.06;4971181;28;102865;-64
2023/11/02 02:42:08;;;;;;;5.18;1.70;;;;;;;9.04;65.55;96635.38;4961662;28;104143;-64
2023/11/02 02:44:39;;;;;;;3.25;2.05;;;;;;;9.04;65.64;96629.25;4971471;28;103277;-64
2023/11/02 02:47:09;;;;;;;4.32;1.83;;;;;;;9.06;65.79;96617.47;4943351;28;103226;-64
2023/11/02 02:49:41;;;;;;;6.78;1.95;;;;;;;9.07;65.66;96613.03;4965000;28;102603;-65
2023/11/02 02:52:14;;;;;;;5.80;2.17;;;;;;;9.06;65.69;96609.56;4960287;28;103201;-64
2023/11/02 02:54:47;;;;;;;3.78;1.70;;;;;;;9.11;65.68;96593.88;4966114;28;104383;-64
2023/11/02 02:57:17;;;;;;;3.22;1.77;;;;;;;9.07;65.79;96597.97;4955230;28;103431;-65
2023/11/02 02:59:53;;;;;;;4.95;2.00;;;;;;;9.06;66.15;96575.22;4953191;28;103906;-64
2023/11/02 03:02:27;;;;;;;3.15;1.63;;;;;;;9.13;65.40;96596.31;4965934;28;102705;-64
2023/11/02 03:04:57;;;;;;;3.65;2.00;;;;;;;9.18;64.92;96624.75;4972925;28;103770;-64
2023/11/02 03:07:31;;;;;;;3.88;1.73;;;;;;;9.16;65.48;96621.50;4962573;28;103232;-64
2023/11/02 03:10:01;;;;;;;4.75;1.92;;;;;;;9.13;65.62;96607.72;4968307;28;102821;-64
2023/11/02 03:12:34;;;;;;;5.78;2.03;;;;;;;9.17;65.56;96581.69;4958261;28;102709;-64
2023/11/02 03:15:06;;;;;;;2.30;1.70;;;;;;;9.15;66.34;96552.03;4973865;28;103271;-64
2023/11/02 03:17:55;;;;;;;4.50;1.98;;;;;;;9.11;65.93;96591.25;4970134;28;103289;-64
2023/11/02 03:20:25;;;;;;;3.15;2.13;;;;;;;9.10;66.40;96596.75;4967198;28;102607;-64
2023/11/02 03:23:00;;;;;;;4.15;2.20;;;;;;;9.20;65.75;96628.00;4953906;28;102766;-65
2023/11/02 03:25:38;;;;;;;4.18;1.92;;;;;;;9.22;65.77;96626.78;4954291;28;104165;-64
2023/11/02 03:28:15;;;;;;;3.42;1.70;;;;;;;9.26;65.93;96587.53;4954656;28;103446;-64
2023/11/02 03:30:50;;;;;;;4.63;1.90;;;;;;;9.25;65.98;96604.41;4966536;28;102808;-63
2023/11/02 03:33:28;;;;;;;2.55;1.60;;;;;;;9.27;66.47;96597.91;4973451;28;103791;-64
2023/11/02 03:36:03;;;;;;;3.17;1.48;;;;;;;9.31;66.39;96585.06;4953421;28;104174;-64
2023/11/02 03:38:53;;;;;;;2.88;1.80;;;;;;;9.28;66.74;96582.84;4951824;28;104340;-64
2023/11/02 03:41:34;;;;;;;4.43;1.90;;;;;;;9.33;66.63;96564.53;4974268;28;102650;-64
2023/11/02 03:44:11;;;;;;;3.72;1.80;;;;;;;9.31;67.02;96561.28;4978699;28;104020;-64
2023/11/02 03:46:54;;;;;;;3.05;1.80;;;;;;;9.37;67.44;96571.00;4972997;28;104608;-63
2023/11/02 03:49:27;;;;;;;2.53;1.60;;;;;;;9.20;67.78;96569.91;4975760;28;103782;-64
2023/11/02 03:52:08;;;;;;;3.30;1.80;;;;;;;9.23;68.32;96561.53;4975044;28;102727;-63
2023/11/02 03:54:57;;;;;;;3.60;1.83;;;;;;;9.22;68.65;96549.34;4972991;28;102659;-64
2023/11/02 03:57:30;;;;;;;2.70;1.75;;;;;;;9.20;69.27;96532.94;4971061;28;103281;-66
2023/11/02 04:00:09;;;;;;;4.38;1.95;;;;;;;9.16;69.53;96511.41;4975109;28;103199;-62
2023/11/02 04:02:45;;;;;;;3.72;1.80;;;;;;;9.02;70.57;96478.19;4972778;28;102653;-62
2023/11/02 04:05:19;;;;;;;3.35;1.73;;;;;;;9.04;71.08;96470.84;4960763;28;103568;-63
2023/11/02 04:08:10;;;;;;;2.63;1.80;;;;;;;9.01;71.00;96442.22;4978000;28;103058;-63
2023/11/02 04:10:47;;;;;;;6.60;1.95;;;;;;;8.93;71.89;96451.22;4973180;28;103961;-64
2023/11/02 04:13:22;;;;;;;5.28;2.00;;;;;;;8.83;72.15;96443.78;4981132;28;102955;-64
2023/11/02 04:15:52;;;;;;;3.47;2.08;;;;;;;8.68;72.54;96417.66;4959718;28;102863;-63
2023/11/02 04:18:21;;;;;;;5.75;2.10;;;;;;;8.75;72.48;96393.84;4983876;28;104175;-63
2023/11/02 04:20:51;;;;;;;3.58;1.85;;;;;;;8.83;72.61;96371.69;4977419;28;103184;-63
2023/11/02 04:23:20;;;;;;;4.85;2.10;;;;;;;8.78;72.40;96346.75;4975612;28;102730;-63
2023/11/02 04:25:54;;;;;;;3.35;1.85;;;;;;;8.90;72.92;96348.69;4978636;28;104294;-63
2023/11/02 04:28:22;;;;;;;;;;;;;;;8.83;73.45;96337.38;4941628;28;104237;-63
2023/11/02 04:30:50;;;;;;;3.67;2.00;;;;;;;8.97;72.16;96328.31;4976074;28;103024;-63
2023/11/02 04:33:18;;;;;;;2.78;1.80;;;;;;;9.03;72.62;96303.69;4977044;28;102595;-63
2023/11/02 04:35:46;;;;;;;2.65;1.50;;;;;;;9.02;72.06;96309.19;4958832;28;104101;-63
2023/11/02 04:38:15;;;;;;;3.70;1.60;;;;;;;9.10;71.46;96307.09;4979820;28;104031;-64
2023/11/02 04:40:43;;;;;;;3.10;1.80;;;;;;;9.09;71.59;96308.13;4977150;28;103177;-63
2023/11/02 04:43:12;;;;;;;1.85;1.55;;;;;;;9.04;71.50;96302.69;4972279;28;102597;-64
2023/11/02 04:45:40;;;;;;;2.85;1.70;;;;;;;9.09;71.00;96287.00;4958532;28;104467;-63
2023/11/02 04:48:08;;;;;;;4.07;2.25;;;;;;;9.12;72.50;96283.91;4979613;28;103234;-63
2023/11/02 04:50:39;;;;;;;3.47;1.77;;;;;;;9.12;72.36;96293.69;4975790;28;102616;-63
2023/11/02 04:53:07;;;;;;;4.65;1.77;;;;;;;9.04;72.57;96276.28;4974192;28;102611;-63
2023/11/02 04:55:37;;;;;;;3.95;2.00;;;;;;;9.01;72.35;96266.13;4961002;28;104095;-63
2023/11/02 04:58:05;;;;;;;4.05;2.20;;;;;;;8.94;72.47;96270.69;4973359;28;103356;-63
2023/11/02 05:00:36;;;;;;;3.78;2.00;;;;;;;9.02;72.65;96257.19;4979333;28;103200;-64
2023/11/02 05:03:05;;;;;;;2.75;1.60;;;;;;;8.92;72.27;96285.91;4955080;28;102688;-64
2023/11/02 05:05:36;;;;;;;3.40;1.75;;;;;;;9.03;71.96;96303.69;4958515;28;104321;-64
2023/11/02 05:08:08;;;;;;;5.65;1.98;;;;;;;9.06;71.34;96282.13;4977580;28;103893;-64
2023/11/02 05:10:36;;;;;;;2.95;1.80;;;;;;;9.10;72.13;96264.84;4977698;28;103286;-64
2023/11/02 05:13:04;;;;;;;3.58;1.80;;;;;;;9.07;71.98;96264.47;4971071;28;102648;-63
2023/11/02 05:15:34;;;;;;;3.25;1.73;;;;;;;9.13;71.74;96243.28;4975701;28;104329;-64
2023/11/02 05:18:23;;;;;;;3.75;1.90;;;;;;;9.13;70.49;96237.16;4976131;28;103062;-64
2023/11/02 05:20:56;;;;;;;3.50;2.08;;;;;;;9.12;70.93;96219.72;4972608;28;103173;-64
2023/11/02 05:23:25;;;;;;;8.25;2.10;;;;;;;9.12;71.08;96209.97;4973701;28;102666;-64
2023/11/02 05:25:53;;;;;;;2.65;1.75;;;;;;;9.08;70.40;96205.34;4965010;28;102808;-64
2023/11/02 05:28:21;;;;;;;3.25;1.67;;;;;;;9.17;70.75;96200.56;4977027;28;103250;-64
2023/11/02 05:30:50;;;;;;;3.78;2.10;;;;;;;9.18;70.67;96175.78;4953235;28;103215;-64
2023/11/02 05:33:17;;;;;;;3.03;1.90;;;;;;;9.22;70.32;96163.75;4977423;28;102647;-64
2023/11/02 05:35:47;;;;;;;4.15;2.00;;;;;;;9.34;70.01;96154.06;4990229;22;102751;-64
2023/11/02 05:38:49;;;;;;;3.15;1.90;;;;;;;9.36;70.69;96152.00;4999913;28;103799;-64
2023/11/02 05:41:44;;;;;;;1.95;1.58;;;;;;;9.38;70.39;96133.28;4983597;28;103047;-64
2023/11/02 05:49:20;;;;;;;4.95;1.90;;;;;;;9.40;70.62;96121.44;4990050;28;102686;-64
2023/11/02 05:51:52;;;;;;;3.53;2.05;;;;;;;9.44;70.81;96121.81;4997716;28;103792;-64
2023/11/02 05:54:20;;;;;;;8.65;2.30;;;;;;;9.46;70.43;96136.41;4998399;28;103300;-65
2023/11/02 05:56:48;;;;;;;3.15;1.60;;;;;;;9.51;70.25;96132.28;4980184;28;102658;-64
2023/11/02 06:03:29;;;;;;;3.25;1.95;;;;;;;9.58;69.51;96170.81;4981955;28;103079;-67
2023/11/02 06:05:57;;;;;;;4.75;2.20;;;;;;;9.60;69.01;96184.63;5007810;28;103314;-67
2023/11/02 06:12:42;;;;;;;3.30;1.70;;;;;;;9.55;68.62;96218.00;5001509;28;102724;-67
2023/11/02 06:15:11;;;;;;;4.95;2.20;;;;;;;9.52;68.31;96258.88;4989077;28;103346;-68
2023/11/02 06:17:39;;;;;;;4.80;2.17;;;;;;;9.55;69.28;96260.28;4985438;28;103930;-67
2023/11/02 06:20:08;;;;;;;2.78;1.70;;;;;;;9.55;68.84;96284.91;4988631;28;103051;-67
2023/11/02 06:22:36;;;;;;;6.03;2.08;;;;;;;9.60;69.41;96315.94;4986554;28;102726;-67
2023/11/02 06:25:05;;;;;;;4.30;2.10;;;;;;;9.60;69.88;96323.84;4984222;28;103303;-63
2023/11/02 06:31:47;;;;;;;3.90;1.92;;;;;;;9.44;72.80;96302.25;4982672;28;102771;-65
2023/11/02 06:34:17;;;;;;;2.60;1.70;;;;;;;9.55;72.69;96315.78;4984719;28;102640;-65
2023/11/02 06:36:45;;;;;;;4.07;2.08;;;;;;;9.56;73.15;96309.47;4990174;28;103222;-66
2023/11/02 06:39:16;;;;;;;2.45;1.45;;;;;;;9.60;72.57;96286.84;4981557;28;103351;-66
2023/11/02 06:41:44;;;;;;;5.13;2.15;;;;;;;9.59;73.48;96294.00;4985012;28;102834;-66
2023/11/02 06:44:12;;;;;;;3.90;1.80;;;;;;;9.59;74.04;96293.19;4988985;28;102692;-64
2023/11/02 06:46:40;;;;;;;2.47;1.58;;;;;;;9.59;74.15;96291.34;4982729;28;103376;-63
2023/11/02 06:49:10;;;;;;;4.57;1.90;;;;;;;9.63;74.76;96295.16;4986058;28;103265;-65
2023/11/02 06:51:38;;;;;;;4.55;2.00;;;;;;;9.60;74.96;96284.22;4986224;28;102692;-63
2023/11/02 06:54:06;;;;;;;1.80;1.40;;;;;;;9.62;75.01;96282.16;4983318;28;102657;-62
2023/11/02 06:56:34;;;;;;;6.15;1.92;;;;;;;9.68;75.10;96280.47;4989026;28;103236;-63
2023/11/02 06:59:02;;;;;;;4.93;2.28;;;;;;;9.59;75.20;96266.75;4988409;28;103247;-63
2023/11/02 07:01:30;;;;;;;3.28;1.77;;;;;;;9.42;76.38;96255.97;4982726;28;102868;-64
2023/11/02 07:03:58;;;;;;;3.53;1.58;;;;;;;9.35;76.75;96256.03;4993855;28;102749;-63
2023/11/02 07:06:27;;;;;;;3.10;1.73;;;;;;;9.42;76.71;96256.78;4979949;28;103240;-66
2023/11/02 07:08:55;;;;;;;4.20;1.80;;;;;;;9.49;76.36;96255.91;4984743;28;102718;-67
2023/11/02 07:11:23;;;;;;;4.55;2.30;;;;;;;9.44;75.97;96260.00;4985648;28;102725;-66
2023/11/02 07:13:51;;;;;;;4.55;1.90;;;;;;;9.40;76.04;96242.19;4987920;28;102902;-66
2023/11/02 07:16:21;;;;;;;4.05;1.95;;;;;;;9.46;76.02;96255.31;4986829;28;103264;-66
2023/11/02 07:18:49;;;;;;;4.20;1.83;;;;;;;9.51;76.51;96233.53;4986032;28;103405;-66
2023/11/02 07:21:17;;;;;;;2.13;1.63;;;;;;;9.53;76.31;96231.44;4987298;28;103067;-66
2023/11/02 07:23:49;;;;;;;3.45;1.95;;;;;;;9.58;76.28;96233.44;4989740;28;103302;-65
2023/11/02 07:26:17;;;;;;;3.42;2.10;;;;;;;9.57;76.70;96215.97;4990143;28;103222;-65
2023/11/02 07:28:45;;;;;;;3.50;2.13;;;;;;;9.61;76.71;96219.75;4990216;28;103310;-65
2023/11/02 07:31:13;;;;;;;4.53;2.58;;;;;;;9.54;76.79;96216.41;4989657;28;102671;-62
2023/11/02 07:33:41;;;;;;;4.50;2.50;;;;;;;9.44;76.93;96209.00;4993561;28;103044;-63
2023/11/02 07:36:13;;;;;;;4.60;2.60;;;;;;;9.39;77.74;96209.69;4992633;28;103221;-63
2023/11/02 07:38:54;;;;;;;4.50;2.30;;;;;;;9.42;77.34;96197.88;4989503;28;103209;-63
2023/11/02 07:41:25;;;;;;;3.57;2.37;;;;;;;9.43;77.46;96194.16;4986502;28;102700;-63
2023/11/02 07:43:53;;;;;;;3.83;2.45;;;;;;;9.35;78.22;96184.72;4982800;28;103114;-63
2023/11/02 07:46:21;;;;;;;4.18;2.63;;;;;;;9.36;77.94;96180.25;4983963;28;103261;-63
2023/11/02 07:48:49;;;;;;;4.55;2.60;;;;;;;9.31;77.99;96177.47;4995676;28;103209;-63
2023/11/02 07:51:18;;;;;;;4.57;2.50;;;;;;;9.27;78.31;96177.09;4982414;28;102717;-64
2023/11/02 07:53:47;;;;;;;3.92;2.50;;;;;;;9.33;78.26;96152.44;4992482;28;102830;-63
2023/11/02 07:56:16;;;;;;;4.22;2.50;;;;;;;9.39;77.94;96156.84;4986919;28;103223;-63
2023/11/02 07:58:45;;;;;;;3.38;2.08;;;;;;;9.45;77.87;96148.00;4989334;28;103274;-63
2023/11/02 08:01:16;;;;;;;4.57;2.75;;;;;;;9.49;78.92;96144.94;4990091;28;103024;-63
2023/11/02 08:03:45;;;;;;;4.78;2.38;;;;;;;9.45;77.97;96140.06;4984647;28;102768;-63
2023/11/02 08:06:13;;;;;;;5.50;2.28;;;;;;;9.52;77.98;96133.91;4995805;28;103780;-63
2023/11/02 08:08:44;;;;;;;3.97;2.00;;;;;;;9.58;77.86;96146.22;4991063;28;103790;-63
2023/11/02 08:11:12;;;;;;;2.95;1.83;;;;;;;9.63;77.94;96143.72;4980663;28;102690;-63
2023/11/02 08:13:42;;;;;;;4.10;2.08;;;;;;;9.60;77.91;96136.22;4982932;28;103131;-63
2023/11/02 08:16:11;;;;;;;4.03;1.95;;;;;;;9.62;77.84;96128.88;4991716;28;102968;-63
2023/11/02 08:18:39;;;;;;;4.38;2.50;;;;;;;9.56;77.49;96127.13;4980980;28;103234;-63
2023/11/02 08:21:10;;;;;;;4.78;2.30;;;;;;;9.48;77.70;96108.97;4999742;28;102860;-63
2023/11/02 08:27:58;;;;;;;5.30;2.40;;;;;;;9.36;78.26;96115.00;5075732;27;102665;-63
2023/11/02 08:39:35;;;;;;;5.60;2.58;;;;;;;9.22;77.23;96097.72;5083275;27;103035;-67
2023/11/02 08:47:09;;;;;;;7.40;2.45;;;;;;;9.27;77.98;96095.22;5075145;27;103165;-63
2023/11/02 08:49:39;;;;;;;6.88;2.03;;;;;;;9.27;77.39;96084.66;5074148;27;103222;-66
2023/11/02 08:52:07;;;;;;;3.35;2.00;;;;;;;9.24;76.93;96087.75;5090030;27;104608;-65
2023/11/02 08:54:35;;;;;;;7.07;1.95;;;;;;;9.27;77.94;96090.75;5053921;27;103143;-66
2023/11/02 08:57:03;;;;;;;4.28;2.42;;;;;;;9.26;77.77;96085.69;5022382;27;102637;-66
2023/11/02 08:59:32;;;;;;;4.20;2.08;;;;;;;9.29;77.66;96086.03;5018588;27;103204;-66
2023/11/02 09:02:01;;;;;;;3.15;1.70;;;;;;;9.32;77.76;96084.00;5021899;27;103277;-66
2023/11/02 09:04:30;;;;;;;3.40;1.80;;;;;;;9.37;77.38;96084.94;5022639;27;103878;-67
2023/11/02 09:07:00;;;;;;;3.30;2.00;;;;;;;9.39;77.06;96088.16;5024493;27;103845;-66
2023/11/02 09:09:28;;;;;;;2.90;1.58;;;;;;;9.50;76.73;96083.13;5020491;27;103414;-66
2023/11/02 09:11:56;;;;;;;5.03;2.33;;;;;;;9.56;76.82;96082.22;5023184;27;103380;-66
2023/11/02 09:14:24;;;;;;;2.92;1.63;;;;;;;9.52;76.73;96086.34;5021246;27;102633;-66
2023/11/02 09:16:52;;;;;;;3.03;1.80;;;;;;;9.65;76.35;96070.28;5023818;27;102718;-67
2023/11/02 09:19:22;;;;;;;3.22;1.48;;;;;;;9.71;76.26;96073.88;5021858;27;103352;-66
2023/11/02 09:21:53;;;;;;;3.92;1.98;;;;;;;9.75;76.72;96065.25;5021102;27;103166;-67
2023/11/02 09:24:23;;;;;;;8.63;2.20;;;;;;;9.78;76.57;96070.06;5019800;27;102738;-66
2023/11/02 09:26:51;;;;;;;5.22;2.38;;;;;;;9.79;76.19;96076.19;5022140;27;102717;-66
2023/11/02 09:29:19;;;;;;;6.05;2.35;;;;;;;9.74;76.21;96082.13;5020946;27;103310;-67
2023/11/02 09:31:46;;;;;;;5.05;2.08;;;;;;;9.78;76.62;96080.66;5019298;27;103255;-67
2023/11/02 09:34:30;;;;;;;2.65;1.73;;;;;;;9.82;76.56;96091.59;5016798;27;103425;-66
2023/11/02 09:36:59;;;;;;;6.65;2.28;;;;;;;9.89;76.63;96112.63;5017118;27;103250;-66
2023/11/02 09:39:31;;;;;;;2.80;1.70;;;;;;;9.91;77.13;96115.84;5006019;28;103530;-66
2023/11/02 09:42:00;;;;;;;3.45;1.83;;;;;;;9.95;76.99;96127.59;5008893;28;103323;-65
2023/11/02 09:44:29;;;;;;;3.40;2.00;;;;;;;9.96;76.80;96142.44;4997823;27;102793;-67
2023/11/02 09:46:57;;;;;;;6.47;2.38;;;;;;;9.90;77.76;96140.69;4975974;22;103187;-67
2023/11/02 09:49:25;;;;;;;4.28;2.03;;;;;;;9.90;77.79;96151.25;4992639;27;103174;-67
2023/11/02 09:51:55;;;;;;;4.60;2.28;;;;;;;10.00;77.56;96146.22;4986636;28;103075;-67
2023/11/02 09:54:23;;;;;;;5.20;2.35;;;;;;;10.03;77.64;96147.59;4983687;28;102674;-66
2023/11/02 09:57:11;;;;;;;4.50;2.40;;;;;;;10.00;78.03;96146.22;4992458;28;103419;-67
2023/11/02 09:59:44;;;;;;;4.43;2.20;;;;;;;9.98;78.60;96145.63;4960933;28;103287;-67
2023/11/02 10:02:17;;;;;;;6.78;2.10;;;;;;;9.97;78.99;96144.03;4988669;28;103205;-67
2023/11/02 10:04:45;;;;;;;6.60;2.13;;;;;;;9.95;79.06;96144.25;4988024;28;102724;-66
2023/11/02 10:07:14;;;;;;;3.70;1.80;;;;;;;9.96;79.01;96132.66;4988199;28;103125;-67
2023/11/02 10:09:43;;;;;;;3.17;2.10;;;;;;;9.96;78.98;96126.56;4984416;28;103289;-66
2023/11/02 10:12:13;;;;;;;5.35;2.08;;;;;;;10.03;78.38;96135.19;4972676;28;103312;-66
2023/11/02 10:14:41;;;;;;;2.60;1.80;;;;;;;10.03;78.81;96129.91;4987828;28;103014;-66
2023/11/02 10:17:11;;;;;;;5.45;2.17;;;;;;;10.12;78.64;96128.53;4989124;28;104491;-66
2023/11/02 10:19:39;;;;;;;3.53;1.90;;;;;;;10.17;78.37;96122.56;4990842;28;103255;-66
2023/11/02 10:22:08;;;;;;;2.78;1.52;;;;;;;10.20;78.62;96113.38;4992242;28;103213;-68
2023/11/02 10:24:37;;;;;;;5.45;1.98;;;;;;;10.27;78.02;96114.03;4983633;28;103600;-65
2023/11/02 10:27:06;;;;;;;5.80;2.08;;;;;;;10.32;77.99;96089.56;4965875;28;102822;-66
2023/11/02 10:29:36;;;;;;;3.13;1.65;;;;;;;10.36;78.02;96102.13;4988247;28;103352;-63
2023/11/02 10:32:05;;;;;;;2.78;1.55;;;;;;;10.39;77.99;96085.00;4989653;28;103734;-63
2023/11/02 10:34:34;;;;;;;3.22;1.58;;;;;;;10.47;77.14;96087.28;4990669;28;102646;-63
2023/11/02 10:37:08;;;;;;;2.88;1.52;;;;;;;10.49;77.03;96085.19;4991595;28;102987;-63
2023/11/02 10:39:37;;;;;;;2.33;1.45;;;;;;;10.50;77.03;96081.53;4988159;28;103279;-63
2023/11/02 10:42:05;;;;;;;2.78;1.40;;;;;;;10.55;76.90;96072.91;4968718;28;103251;-63
2023/11/02 10:44:37;;;;;;;5.47;2.30;;;;;;;10.69;76.96;96068.13;4989426;28;102666;-63
2023/11/02 10:47:07;;;;;;;2.75;1.50;;;;;;;10.72;77.07;96051.81;4996073;28;102693;-63
2023/11/02 10:49:37;;;;;;;2.30;1.45;;;;;;;10.69;76.59;96047.78;4967258;28;103813;-63
2023/11/02 10:52:08;;;;;;;2.20;1.33;;;;;;;10.65;76.27;96046.66;4970267;28;103279;-63
2023/11/02 10:54:42;;;;;;;3.22;1.40;;;;;;;10.70;76.03;96027.41;4995163;28;102828;-67
2023/11/02 10:57:16;;;;;;;2.17;1.50;;;;;;;10.77;76.00;96031.53;4989765;28;102797;-67
2023/11/02 10:59:47;;;;;;;2.17;1.35;;;;;;;10.75;76.71;96035.44;4968746;28;103372;-67
2023/11/02 11:02:17;;;;;;;2.60;1.50;;;;;;;10.73;76.46;96038.34;4996552;28;103201;-67
2023/11/02 11:04:47;;;;;;;1.65;1.00;;;;;;;10.71;76.17;96019.22;4988561;28;102820;-68
2023/11/02 11:07:15;;;;;;;1.70;1.30;;;;;;;10.72;76.26;96015.53;4984121;28;102655;-67
2023/11/02 11:09:48;;;;;;;2.35;1.40;;;;;;;10.70;76.25;96009.69;4984141;28;103286;-66
2023/11/02 11:12:17;;;;;;;2.10;1.40;;;;;;;10.74;75.76;96016.13;4971281;28;103374;-66
2023/11/02 11:14:49;;;;;;;1.95;1.05;;;;;;;10.80;75.66;96021.53;4968088;28;103069;-67
2023/11/02 11:17:17;;;;;;;2.03;1.23;;;;;;;10.81;74.85;96028.41;4984270;28;103046;-68
2023/11/02 11:19:46;;;;;;;1.20;1.10;;;;;;;10.86;75.29;96031.16;4985990;28;103691;-67
2023/11/02 11:22:17;;;;;;;2.42;1.40;;;;;;;10.89;75.44;96025.41;4970545;28;103200;-67
2023/11/02 11:24:54;;;;;;;1.83;1.25;;;;;;;10.96;75.26;96026.06;4985735;28;102874;-67
2023/11/02 11:27:30;;;;;;;1.63;1.30;;;;;;;10.88;75.18;96021.94;4987403;28;102804;-67
2023/11/02 11:30:02;;;;;;;4.03;1.42;;;;;;;10.85;74.83;96021.63;4987636;28;103441;-68
2023/11/02 11:32:37;;;;;;;2.15;1.35;;;;;;;10.80;75.29;96022.31;4984482;28;103327;-68
2023/11/02 11:35:06;;;;;;;2.17;1.10;;;;;;;10.83;75.13;96024.47;4988423;28;102993;-67
2023/11/02 11:37:37;;;;;;;2.58;1.52;;;;;;;10.76;74.64;96027.25;4972357;28;103878;-67
2023/11/02 11:40:07;;;;;;;3.15;1.38;;;;;;;10.76;74.14;96021.19;4986395;28;104204;-67
2023/11/02 11:43:05;;;;;;;2.15;1.15;;;;;;;10.76;74.59;96006.09;4993058;28;103210;-66
2023/11/02 11:45:38;;;;;;;1.75;1.15;;;;;;;10.73;75.13;96008.38;4985777;28;102675;-66
2023/11/02 11:48:10;;;;;;;1.92;1.40;;;;;;;10.71;74.53;96002.53;4988511;28;103075;-67
2023/11/02 11:50:40;;;;;;;1.23;1.00;;;;;;;10.58;74.43;95999.13;4984016;28;103405;-67
2023/11/02 11:53:17;;;;;;;2.17;1.60;;;;;;;10.79;74.46;96004.81;4991155;28;103229;-67
2023/11/02 11:55:47;;;;;;;2.05;1.50;;;;;;;10.83;74.65;95994.56;4977292;28;102705;-66
2023/11/02 11:58:19;;;;;;;2.80;1.45;;;;;;;10.83;74.22;95983.97;4972991;28;102789;-67
2023/11/02 12:01:17;;;;;;;2.60;1.30;;;;;;;10.80;73.96;95974.66;4992492;28;104453;-67
2023/11/02 12:03:46;;;;;;;2.35;1.60;;;;;;;10.77;73.96;95969.84;4974810;28;103202;-67
2023/11/02 12:06:16;;;;;;;3.80;1.35;;;;;;;10.85;73.57;95966.03;4983079;28;102735;-67
2023/11/02 12:08:46;;;;;;;3.85;1.70;;;;;;;10.80;73.96;95945.53;4970366;28;102831;-66
2023/11/02 12:11:23;;;;;;;3.77;2.17;;;;;;;10.83;74.15;95941.59;4990675;28;103962;-66
2023/11/02 12:13:55;;;;;;;4.13;1.50;;;;;;;10.82;74.04;95945.28;4983071;28;103320;-67
2023/11/02 12:16:31;;;;;;;3.70;1.77;;;;;;;10.75;73.81;95935.63;4986692;28;102719;-66
2023/11/02 12:19:00;;;;;;;3.55;2.10;;;;;;;10.76;74.34;95910.78;4981966;28;104445;-66
2023/11/02 12:21:28;;;;;;;2.78;1.42;;;;;;;10.72;73.78;95906.22;4988330;28;103346;-66
2023/11/02 12:23:57;;;;;;;3.10;1.48;;;;;;;10.69;73.51;95904.84;4965828;28;103203;-66
2023/11/02 12:26:27;;;;;;;2.28;1.63;;;;;;;10.69;73.45;95881.03;4981330;28;102616;-67
2023/11/02 12:29:05;;;;;;;2.83;1.60;;;;;;;10.68;74.01;95870.69;4986892;28;102776;-67
2023/11/02 12:31:36;;;;;;;1.88;1.33;;;;;;;10.66;73.72;95868.25;4994838;28;103328;-67
2023/11/02 12:34:08;;;;;;;2.10;1.33;;;;;;;10.71;74.15;95864.91;4967901;28;103401;-67
2023/11/02 12:36:36;;;;;;;3.72;1.58;;;;;;;10.69;74.38;95862.50;4989401;28;103006;-67